McCain, North Carolina
Current Conditions -  °F | °C
As of 2:15 AM on Monday 24 Nov 2014 (Local Time) from KHFF Reporting Station
Broken Clouds Broken Clouds  
Wind Chill: 64°   Ceiling: 1400
Heat Index: 64°   Visibility: 10mi
Dew Point: 63°   Wind: 8mph
Humidity: 94%   Direction: 230°SW
Pressure: 29.8"   Gusts: NA
Location:  35.07°N, 79.34°W
Report Text: KHFF 240715Z AUTO 23007KT 10SM BKN014 18/17 A2980 RMK AO2 LTG DSNT SE PRESRR
Loading
Personal Weather Stations






























Interactive Weather Map New forecast layout! Learn more

10-Day Weather Forecast

Advertisements
Track Severe Weather on mobile